sensor_id;sensor_type;location;lat;lon;timestamp;P1;durP1;ratioP1;P2;durP2;ratioP2
50647;SDS011;36617;52.002;6.034;2022-09-12T00:01:23;6.38;;;4.25;;
50647;SDS011;36617;52.002;6.034;2022-09-12T00:03:56;6.18;;;4.32;;
50647;SDS011;36617;52.002;6.034;2022-09-12T00:06:26;6.70;;;4.32;;
50647;SDS011;36617;52.002;6.034;2022-09-12T00:09:00;6.30;;;4.10;;
50647;SDS011;36617;52.002;6.034;2022-09-12T00:11:25;6.45;;;4.43;;
50647;SDS011;36617;52.002;6.034;2022-09-12T00:13:51;5.97;;;4.20;;
50647;SDS011;36617;52.002;6.034;2022-09-12T00:16:20;6.00;;;4.25;;
50647;SDS011;36617;52.002;6.034;2022-09-12T00:18:46;6.03;;;4.15;;
50647;SDS011;36617;52.002;6.034;2022-09-12T00:21:11;6.43;;;4.33;;
50647;SDS011;36617;52.002;6.034;2022-09-12T00:23:36;5.43;;;4.13;;
50647;SDS011;36617;52.002;6.034;2022-09-12T00:26:03;6.53;;;4.68;;
50647;SDS011;36617;52.002;6.034;2022-09-12T00:28:28;6.28;;;4.47;;
50647;SDS011;36617;52.002;6.034;2022-09-12T00:30:53;6.50;;;4.30;;
50647;SDS011;36617;52.002;6.034;2022-09-12T00:33:18;5.83;;;4.30;;
50647;SDS011;36617;52.002;6.034;2022-09-12T00:35:48;6.20;;;4.33;;
50647;SDS011;36617;52.002;6.034;2022-09-12T00:38:14;6.43;;;4.18;;
50647;SDS011;36617;52.002;6.034;2022-09-12T00:40:40;5.75;;;4.20;;
50647;SDS011;36617;52.002;6.034;2022-09-12T00:43:05;6.60;;;4.40;;
50647;SDS011;36617;52.002;6.034;2022-09-12T00:45:34;6.10;;;4.40;;
50647;SDS011;36617;52.002;6.034;2022-09-12T00:48:00;5.90;;;4.30;;
50647;SDS011;36617;52.002;6.034;2022-09-12T00:50:26;6.05;;;4.25;;
50647;SDS011;36617;52.002;6.034;2022-09-12T00:52:52;6.37;;;4.37;;
50647;SDS011;36617;52.002;6.034;2022-09-12T00:55:31;6.03;;;4.20;;
50647;SDS011;36617;52.002;6.034;2022-09-12T00:58:01;6.03;;;4.00;;
50647;SDS011;36617;52.002;6.034;2022-09-12T01:00:28;5.60;;;4.10;;
50647;SDS011;36617;52.002;6.034;2022-09-12T01:02:55;5.82;;;4.00;;
50647;SDS011;36617;52.002;6.034;2022-09-12T01:05:21;6.18;;;4.30;;
50647;SDS011;36617;52.002;6.034;2022-09-12T01:07:47;6.05;;;4.28;;
50647;SDS011;36617;52.002;6.034;2022-09-12T01:10:14;5.95;;;4.47;;
50647;SDS011;36617;52.002;6.034;2022-09-12T01:12:40;6.50;;;4.40;;
50647;SDS011;36617;52.002;6.034;2022-09-12T01:15:06;6.15;;;4.32;;
50647;SDS011;36617;52.002;6.034;2022-09-12T01:18:15;5.83;;;4.37;;
50647;SDS011;36617;52.002;6.034;2022-09-12T01:20:27;7.88;;;4.63;;
50647;SDS011;36617;52.002;6.034;2022-09-12T01:30:40;6.88;;;4.50;;
50647;SDS011;36617;52.002;6.034;2022-09-12T01:38:33;6.05;;;4.20;;
50647;SDS011;36617;52.002;6.034;2022-09-12T01:43:34;6.53;;;4.50;;
50647;SDS011;36617;52.002;6.034;2022-09-12T01:46:11;6.40;;;4.70;;
50647;SDS011;36617;52.002;6.034;2022-09-12T01:48:40;7.05;;;5.00;;
50647;SDS011;36617;52.002;6.034;2022-09-12T01:51:09;6.13;;;4.47;;
50647;SDS011;36617;52.002;6.034;2022-09-12T01:53:37;6.72;;;4.70;;
50647;SDS011;36617;52.002;6.034;2022-09-12T01:56:07;6.30;;;4.50;;
50647;SDS011;36617;52.002;6.034;2022-09-12T01:58:41;6.45;;;4.70;;
50647;SDS011;36617;52.002;6.034;2022-09-12T02:01:19;6.88;;;4.60;;
50647;SDS011;36617;52.002;6.034;2022-09-12T02:03:47;6.70;;;4.72;;
50647;SDS011;36617;52.002;6.034;2022-09-12T02:06:16;6.45;;;4.80;;
50647;SDS011;36617;52.002;6.034;2022-09-12T02:08:43;6.57;;;4.72;;
50647;SDS011;36617;52.002;6.034;2022-09-12T02:11:11;7.25;;;4.70;;
50647;SDS011;36617;52.002;6.034;2022-09-12T02:13:43;6.03;;;4.50;;
50647;SDS011;36617;52.002;6.034;2022-09-12T02:19:02;6.55;;;4.78;;
50647;SDS011;36617;52.002;6.034;2022-09-12T02:21:31;6.38;;;4.55;;
50647;SDS011;36617;52.002;6.034;2022-09-12T02:23:58;6.40;;;4.60;;
50647;SDS011;36617;52.002;6.034;2022-09-12T02:26:33;6.50;;;4.43;;
50647;SDS011;36617;52.002;6.034;2022-09-12T02:28:59;6.32;;;4.38;;
50647;SDS011;36617;52.002;6.034;2022-09-12T02:31:43;6.90;;;4.60;;
50647;SDS011;36617;52.002;6.034;2022-09-12T02:34:12;6.55;;;4.50;;
50647;SDS011;36617;52.002;6.034;2022-09-12T02:36:44;6.20;;;4.50;;
50647;SDS011;36617;52.002;6.034;2022-09-12T02:39:10;6.65;;;4.88;;
50647;SDS011;36617;52.002;6.034;2022-09-12T02:41:35;6.77;;;4.70;;
50647;SDS011;36617;52.002;6.034;2022-09-12T02:44:01;6.43;;;4.70;;
50647;SDS011;36617;52.002;6.034;2022-09-12T02:46:30;6.77;;;4.60;;
50647;SDS011;36617;52.002;6.034;2022-09-12T02:48:57;7.07;;;4.72;;
50647;SDS011;36617;52.002;6.034;2022-09-12T02:51:22;6.50;;;4.90;;
50647;SDS011;36617;52.002;6.034;2022-09-12T02:53:48;5.72;;;4.20;;
50647;SDS011;36617;52.002;6.034;2022-09-12T02:56:16;6.00;;;4.50;;
50647;SDS011;36617;52.002;6.034;2022-09-12T02:58:42;6.43;;;4.65;;
50647;SDS011;36617;52.002;6.034;2022-09-12T03:09:02;6.65;;;4.70;;
50647;SDS011;36617;52.002;6.034;2022-09-12T03:11:39;7.00;;;4.95;;
50647;SDS011;36617;52.002;6.034;2022-09-12T03:14:31;7.50;;;5.00;;
50647;SDS011;36617;52.002;6.034;2022-09-12T03:16:55;6.90;;;4.90;;
50647;SDS011;36617;52.002;6.034;2022-09-12T03:19:45;6.85;;;4.57;;
50647;SDS011;36617;52.002;6.034;2022-09-12T03:22:15;6.55;;;4.72;;
50647;SDS011;36617;52.002;6.034;2022-09-12T03:25:03;6.38;;;4.85;;
50647;SDS011;36617;52.002;6.034;2022-09-12T03:27:33;6.30;;;4.70;;
50647;SDS011;36617;52.002;6.034;2022-09-12T03:30:00;6.80;;;5.00;;
50647;SDS011;36617;52.002;6.034;2022-09-12T03:32:41;7.70;;;5.27;;
50647;SDS011;36617;52.002;6.034;2022-09-12T03:35:07;6.90;;;4.97;;
50647;SDS011;36617;52.002;6.034;2022-09-12T03:37:32;6.87;;;4.80;;
50647;SDS011;36617;52.002;6.034;2022-09-12T03:39:57;7.07;;;5.00;;
50647;SDS011;36617;52.002;6.034;2022-09-12T03:42:22;7.60;;;4.97;;
50647;SDS011;36617;52.002;6.034;2022-09-12T03:44:47;6.90;;;5.10;;
50647;SDS011;36617;52.002;6.034;2022-09-12T03:47:13;7.47;;;5.10;;
50647;SDS011;36617;52.002;6.034;2022-09-12T03:49:38;7.80;;;5.20;;
50647;SDS011;36617;52.002;6.034;2022-09-12T03:52:03;7.03;;;4.95;;
50647;SDS011;36617;52.002;6.034;2022-09-12T03:54:28;7.43;;;5.10;;
50647;SDS011;36617;52.002;6.034;2022-09-12T03:56:54;7.27;;;5.03;;
50647;SDS011;36617;52.002;6.034;2022-09-12T03:59:19;7.90;;;5.27;;
50647;SDS011;36617;52.002;6.034;2022-09-12T04:01:44;6.80;;;5.10;;
50647;SDS011;36617;52.002;6.034;2022-09-12T04:04:09;7.25;;;5.07;;
50647;SDS011;36617;52.002;6.034;2022-09-12T04:06:34;6.93;;;5.03;;
50647;SDS011;36617;52.002;6.034;2022-09-12T04:08:59;7.38;;;5.13;;
50647;SDS011;36617;52.002;6.034;2022-09-12T04:11:25;6.90;;;5.20;;
50647;SDS011;36617;52.002;6.034;2022-09-12T04:13:50;6.77;;;5.00;;
50647;SDS011;36617;52.002;6.034;2022-09-12T04:16:15;7.80;;;5.17;;
50647;SDS011;36617;52.002;6.034;2022-09-12T04:18:41;7.27;;;5.10;;
50647;SDS011;36617;52.002;6.034;2022-09-12T04:21:08;6.93;;;5.10;;
50647;SDS011;36617;52.002;6.034;2022-09-12T04:23:34;7.90;;;5.10;;
50647;SDS011;36617;52.002;6.034;2022-09-12T04:26:00;7.80;;;5.27;;
50647;SDS011;36617;52.002;6.034;2022-09-12T04:28:25;7.28;;;5.07;;
50647;SDS011;36617;52.002;6.034;2022-09-12T04:30:52;7.38;;;5.47;;
50647;SDS011;36617;52.002;6.034;2022-09-12T04:33:18;6.93;;;4.93;;
50647;SDS011;36617;52.002;6.034;2022-09-12T04:35:43;7.67;;;5.20;;
50647;SDS011;36617;52.002;6.034;2022-09-12T04:38:09;7.20;;;5.18;;
50647;SDS011;36617;52.002;6.034;2022-09-12T04:40:34;8.27;;;5.63;;
50647;SDS011;36617;52.002;6.034;2022-09-12T04:42:59;9.27;;;6.00;;
50647;SDS011;36617;52.002;6.034;2022-09-12T04:45:25;8.40;;;6.27;;
50647;SDS011;36617;52.002;6.034;2022-09-12T04:47:50;9.10;;;5.93;;
50647;SDS011;36617;52.002;6.034;2022-09-12T04:50:15;8.17;;;5.70;;
50647;SDS011;36617;52.002;6.034;2022-09-12T04:52:40;7.70;;;5.55;;
50647;SDS011;36617;52.002;6.034;2022-09-12T04:55:06;7.13;;;5.13;;
50647;SDS011;36617;52.002;6.034;2022-09-12T04:57:31;6.60;;;5.00;;
50647;SDS011;36617;52.002;6.034;2022-09-12T04:59:57;8.03;;;5.70;;
50647;SDS011;36617;52.002;6.034;2022-09-12T05:02:23;7.18;;;5.20;;
50647;SDS011;36617;52.002;6.034;2022-09-12T05:04:48;7.37;;;5.17;;
50647;SDS011;36617;52.002;6.034;2022-09-12T05:07:13;7.83;;;5.30;;
50647;SDS011;36617;52.002;6.034;2022-09-12T05:09:38;7.53;;;5.27;;
50647;SDS011;36617;52.002;6.034;2022-09-12T05:12:04;7.47;;;5.50;;
50647;SDS011;36617;52.002;6.034;2022-09-12T05:14:29;8.93;;;5.75;;
50647;SDS011;36617;52.002;6.034;2022-09-12T05:16:56;8.75;;;5.10;;
50647;SDS011;36617;52.002;6.034;2022-09-12T05:19:24;7.65;;;5.35;;
50647;SDS011;36617;52.002;6.034;2022-09-12T05:21:49;7.63;;;5.27;;
50647;SDS011;36617;52.002;6.034;2022-09-12T05:24:14;7.70;;;5.40;;
50647;SDS011;36617;52.002;6.034;2022-09-12T05:26:40;8.03;;;5.50;;
50647;SDS011;36617;52.002;6.034;2022-09-12T05:29:05;7.63;;;5.35;;
50647;SDS011;36617;52.002;6.034;2022-09-12T05:31:31;7.57;;;5.18;;
50647;SDS011;36617;52.002;6.034;2022-09-12T05:33:56;7.77;;;5.40;;
50647;SDS011;36617;52.002;6.034;2022-09-12T05:36:23;8.30;;;5.30;;
50647;SDS011;36617;52.002;6.034;2022-09-12T05:38:48;8.52;;;5.57;;
50647;SDS011;36617;52.002;6.034;2022-09-12T05:41:15;8.03;;;5.50;;
50647;SDS011;36617;52.002;6.034;2022-09-12T05:43:40;7.97;;;5.50;;
50647;SDS011;36617;52.002;6.034;2022-09-12T05:46:07;8.60;;;5.90;;
50647;SDS011;36617;52.002;6.034;2022-09-12T05:48:33;8.98;;;5.82;;
50647;SDS011;36617;52.002;6.034;2022-09-12T05:50:59;8.93;;;5.68;;
50647;SDS011;36617;52.002;6.034;2022-09-12T05:53:26;8.73;;;5.80;;
50647;SDS011;36617;52.002;6.034;2022-09-12T05:56:00;9.05;;;6.20;;
50647;SDS011;36617;52.002;6.034;2022-09-12T05:58:25;8.57;;;6.20;;
50647;SDS011;36617;52.002;6.034;2022-09-12T06:00:50;9.20;;;6.00;;
50647;SDS011;36617;52.002;6.034;2022-09-12T06:03:15;9.27;;;5.90;;
50647;SDS011;36617;52.002;6.034;2022-09-12T06:05:41;8.60;;;6.00;;
50647;SDS011;36617;52.002;6.034;2022-09-12T06:08:06;8.90;;;6.13;;
50647;SDS011;36617;52.002;6.034;2022-09-12T06:10:31;9.90;;;6.38;;
50647;SDS011;36617;52.002;6.034;2022-09-12T06:12:59;9.43;;;6.25;;
50647;SDS011;36617;52.002;6.034;2022-09-12T06:15:24;9.30;;;6.43;;
50647;SDS011;36617;52.002;6.034;2022-09-12T06:17:49;9.70;;;6.50;;
50647;SDS011;36617;52.002;6.034;2022-09-12T06:20:14;10.47;;;6.83;;
50647;SDS011;36617;52.002;6.034;2022-09-12T06:22:40;9.80;;;6.57;;
50647;SDS011;36617;52.002;6.034;2022-09-12T06:25:05;10.93;;;7.30;;
50647;SDS011;36617;52.002;6.034;2022-09-12T06:27:30;9.52;;;6.63;;
50647;SDS011;36617;52.002;6.034;2022-09-12T06:29:55;10.57;;;7.37;;
50647;SDS011;36617;52.002;6.034;2022-09-12T06:32:20;10.82;;;7.20;;
50647;SDS011;36617;52.002;6.034;2022-09-12T06:34:46;10.20;;;6.70;;
50647;SDS011;36617;52.002;6.034;2022-09-12T06:37:12;10.32;;;7.20;;
50647;SDS011;36617;52.002;6.034;2022-09-12T06:39:37;10.90;;;7.00;;
50647;SDS011;36617;52.002;6.034;2022-09-12T06:42:03;10.70;;;7.10;;
50647;SDS011;36617;52.002;6.034;2022-09-12T06:44:28;10.77;;;7.37;;
50647;SDS011;36617;52.002;6.034;2022-09-12T06:46:53;11.10;;;7.40;;
50647;SDS011;36617;52.002;6.034;2022-09-12T06:49:18;9.90;;;7.10;;
50647;SDS011;36617;52.002;6.034;2022-09-12T06:51:44;10.77;;;7.30;;
50647;SDS011;36617;52.002;6.034;2022-09-12T06:54:13;10.83;;;7.30;;
50647;SDS011;36617;52.002;6.034;2022-09-12T06:56:38;10.57;;;7.00;;
50647;SDS011;36617;52.002;6.034;2022-09-12T06:59:03;10.35;;;6.90;;
50647;SDS011;36617;52.002;6.034;2022-09-12T07:01:29;10.70;;;7.50;;
50647;SDS011;36617;52.002;6.034;2022-09-12T07:03:59;10.05;;;7.35;;
50647;SDS011;36617;52.002;6.034;2022-09-12T07:06:28;11.25;;;7.30;;
50647;SDS011;36617;52.002;6.034;2022-09-12T07:08:56;11.23;;;7.70;;
50647;SDS011;36617;52.002;6.034;2022-09-12T07:11:22;11.13;;;7.47;;
50647;SDS011;36617;52.002;6.034;2022-09-12T07:13:48;10.98;;;7.50;;
50647;SDS011;36617;52.002;6.034;2022-09-12T07:16:14;11.25;;;7.35;;
50647;SDS011;36617;52.002;6.034;2022-09-12T07:18:40;11.20;;;7.87;;
50647;SDS011;36617;52.002;6.034;2022-09-12T07:21:09;10.53;;;7.77;;
50647;SDS011;36617;52.002;6.034;2022-09-12T07:23:35;10.85;;;7.57;;
50647;SDS011;36617;52.002;6.034;2022-09-12T07:26:00;10.43;;;7.77;;
50647;SDS011;36617;52.002;6.034;2022-09-12T07:28:26;11.27;;;7.70;;
50647;SDS011;36617;52.002;6.034;2022-09-12T07:30:52;11.30;;;8.00;;
50647;SDS011;36617;52.002;6.034;2022-09-12T07:33:27;10.40;;;7.63;;
50647;SDS011;36617;52.002;6.034;2022-09-12T07:35:52;10.35;;;7.30;;
50647;SDS011;36617;52.002;6.034;2022-09-12T07:38:20;11.23;;;7.83;;
50647;SDS011;36617;52.002;6.034;2022-09-12T07:40:46;10.90;;;7.90;;
50647;SDS011;36617;52.002;6.034;2022-09-12T07:43:11;11.27;;;7.63;;
50647;SDS011;36617;52.002;6.034;2022-09-12T07:45:36;10.77;;;7.50;;
50647;SDS011;36617;52.002;6.034;2022-09-12T07:48:02;10.70;;;7.43;;
50647;SDS011;36617;52.002;6.034;2022-09-12T07:50:27;10.93;;;7.40;;
50647;SDS011;36617;52.002;6.034;2022-09-12T07:52:53;11.13;;;7.53;;
50647;SDS011;36617;52.002;6.034;2022-09-12T07:55:18;11.13;;;7.70;;
50647;SDS011;36617;52.002;6.034;2022-09-12T07:57:44;10.30;;;7.30;;
50647;SDS011;36617;52.002;6.034;2022-09-12T08:00:09;10.10;;;7.30;;
50647;SDS011;36617;52.002;6.034;2022-09-12T08:02:34;12.27;;;8.20;;
50647;SDS011;36617;52.002;6.034;2022-09-12T08:05:00;11.50;;;8.00;;
50647;SDS011;36617;52.002;6.034;2022-09-12T08:07:26;11.53;;;7.87;;
50647;SDS011;36617;52.002;6.034;2022-09-12T08:09:51;10.73;;;7.57;;
50647;SDS011;36617;52.002;6.034;2022-09-12T08:12:17;10.85;;;7.57;;
50647;SDS011;36617;52.002;6.034;2022-09-12T08:14:44;10.35;;;7.30;;
50647;SDS011;36617;52.002;6.034;2022-09-12T08:17:09;10.80;;;7.47;;
50647;SDS011;36617;52.002;6.034;2022-09-12T08:19:34;10.67;;;7.70;;
50647;SDS011;36617;52.002;6.034;2022-09-12T08:21:59;10.57;;;7.90;;
50647;SDS011;36617;52.002;6.034;2022-09-12T08:24:24;10.90;;;7.57;;
50647;SDS011;36617;52.002;6.034;2022-09-12T08:26:49;10.13;;;7.47;;
50647;SDS011;36617;52.002;6.034;2022-09-12T08:29:15;9.13;;;6.63;;
50647;SDS011;36617;52.002;6.034;2022-09-12T08:31:40;17.97;;;9.50;;
50647;SDS011;36617;52.002;6.034;2022-09-12T08:34:06;29.20;;;20.10;;
50647;SDS011;36617;52.002;6.034;2022-09-12T08:36:32;30.07;;;20.73;;
50647;SDS011;36617;52.002;6.034;2022-09-12T08:38:58;26.50;;;19.33;;
50647;SDS011;36617;52.002;6.034;2022-09-12T08:46:32;30.80;;;22.13;;
50647;SDS011;36617;52.002;6.034;2022-09-12T08:48:59;26.05;;;19.73;;
50647;SDS011;36617;52.002;6.034;2022-09-12T08:51:26;32.17;;;23.60;;
50647;SDS011;36617;52.002;6.034;2022-09-12T08:53:51;28.83;;;22.20;;
50647;SDS011;36617;52.002;6.034;2022-09-12T08:56:18;27.17;;;20.90;;
50647;SDS011;36617;52.002;6.034;2022-09-12T08:58:44;32.07;;;23.00;;
50647;SDS011;36617;52.002;6.034;2022-09-12T09:16:56;28.65;;;21.70;;
50647;SDS011;36617;52.002;6.034;2022-09-12T09:19:25;26.33;;;18.83;;
50647;SDS011;36617;52.002;6.034;2022-09-12T09:22:01;25.45;;;18.02;;
50647;SDS011;36617;52.002;6.034;2022-09-12T09:27:14;30.58;;;21.90;;
50647;SDS011;36617;52.002;6.034;2022-09-12T09:29:46;26.75;;;20.52;;
50647;SDS011;36617;52.002;6.034;2022-09-12T09:32:17;28.60;;;19.40;;
50647;SDS011;36617;52.002;6.034;2022-09-12T09:34:43;26.38;;;19.65;;
50647;SDS011;36617;52.002;6.034;2022-09-12T09:37:18;27.08;;;19.70;;
50647;SDS011;36617;52.002;6.034;2022-09-12T09:44:34;23.70;;;17.77;;
50647;SDS011;36617;52.002;6.034;2022-09-12T09:47:00;22.27;;;17.33;;
50647;SDS011;36617;52.002;6.034;2022-09-12T09:49:26;20.73;;;14.50;;
50647;SDS011;36617;52.002;6.034;2022-09-12T09:51:52;21.15;;;14.30;;
50647;SDS011;36617;52.002;6.034;2022-09-12T09:54:18;21.67;;;14.80;;
50647;SDS011;36617;52.002;6.034;2022-09-12T09:56:45;21.45;;;16.25;;
50647;SDS011;36617;52.002;6.034;2022-09-12T09:59:11;17.70;;;13.80;;
50647;SDS011;36617;52.002;6.034;2022-09-12T10:01:50;17.67;;;12.85;;
50647;SDS011;36617;52.002;6.034;2022-09-12T10:04:17;17.53;;;12.57;;
50647;SDS011;36617;52.002;6.034;2022-09-12T10:06:43;16.17;;;12.52;;
50647;SDS011;36617;52.002;6.034;2022-09-12T10:09:42;16.50;;;11.98;;
50647;SDS011;36617;52.002;6.034;2022-09-12T10:14:43;15.27;;;10.70;;
50647;SDS011;36617;52.002;6.034;2022-09-12T10:19:48;13.60;;;9.88;;
50647;SDS011;36617;52.002;6.034;2022-09-12T10:22:17;15.77;;;9.98;;
50647;SDS011;36617;52.002;6.034;2022-09-12T10:24:46;13.15;;;9.57;;
50647;SDS011;36617;52.002;6.034;2022-09-12T10:27:17;13.27;;;9.48;;
50647;SDS011;36617;52.002;6.034;2022-09-12T10:29:45;13.68;;;9.38;;
50647;SDS011;36617;52.002;6.034;2022-09-12T10:32:17;14.25;;;9.80;;
50647;SDS011;36617;52.002;6.034;2022-09-12T10:34:44;16.10;;;9.20;;
50647;SDS011;36617;52.002;6.034;2022-09-12T10:37:15;12.13;;;9.30;;
50647;SDS011;36617;52.002;6.034;2022-09-12T10:39:42;12.63;;;8.90;;
50647;SDS011;36617;52.002;6.034;2022-09-12T10:42:14;11.05;;;8.15;;
50647;SDS011;36617;52.002;6.034;2022-09-12T10:44:39;12.30;;;8.90;;
50647;SDS011;36617;52.002;6.034;2022-09-12T10:47:20;11.65;;;8.20;;
50647;SDS011;36617;52.002;6.034;2022-09-12T10:49:45;12.70;;;8.25;;
50647;SDS011;36617;52.002;6.034;2022-09-12T10:52:19;12.27;;;7.70;;
50647;SDS011;36617;52.002;6.034;2022-09-12T10:54:45;10.07;;;7.10;;
50647;SDS011;36617;52.002;6.034;2022-09-12T10:57:24;12.37;;;7.43;;
50647;SDS011;36617;52.002;6.034;2022-09-12T11:02:28;10.68;;;7.53;;
50647;SDS011;36617;52.002;6.034;2022-09-12T11:10:27;11.27;;;7.45;;
50647;SDS011;36617;52.002;6.034;2022-09-12T11:12:57;10.00;;;7.10;;
50647;SDS011;36617;52.002;6.034;2022-09-12T11:17:55;9.73;;;6.93;;
50647;SDS011;36617;52.002;6.034;2022-09-12T11:25:30;9.20;;;6.80;;
50647;SDS011;36617;52.002;6.034;2022-09-12T11:30:48;8.85;;;5.90;;
50647;SDS011;36617;52.002;6.034;2022-09-12T11:35:50;8.10;;;5.70;;
50647;SDS011;36617;52.002;6.034;2022-09-12T11:40:50;7.40;;;5.22;;
50647;SDS011;36617;52.002;6.034;2022-09-12T11:43:34;7.50;;;5.13;;
50647;SDS011;36617;52.002;6.034;2022-09-12T11:46:05;6.75;;;4.70;;
50647;SDS011;36617;52.002;6.034;2022-09-12T11:48:47;7.35;;;4.78;;
50647;SDS011;36617;52.002;6.034;2022-09-12T11:51:24;7.53;;;4.53;;
50647;SDS011;36617;52.002;6.034;2022-09-12T11:53:57;6.73;;;4.03;;
50647;SDS011;36617;52.002;6.034;2022-09-12T11:56:23;6.80;;;3.97;;
50647;SDS011;36617;52.002;6.034;2022-09-12T11:58:53;5.90;;;3.77;;
50647;SDS011;36617;52.002;6.034;2022-09-12T12:01:20;6.57;;;3.70;;
50647;SDS011;36617;52.002;6.034;2022-09-12T12:03:47;6.23;;;3.40;;
50647;SDS011;36617;52.002;6.034;2022-09-12T12:06:32;5.40;;;3.43;;
50647;SDS011;36617;52.002;6.034;2022-09-12T12:08:59;7.40;;;3.80;;
50647;SDS011;36617;52.002;6.034;2022-09-12T12:13:54;6.85;;;3.72;;
50647;SDS011;36617;52.002;6.034;2022-09-12T12:16:22;7.68;;;3.65;;
50647;SDS011;36617;52.002;6.034;2022-09-12T12:18:55;5.72;;;3.70;;
50647;SDS011;36617;52.002;6.034;2022-09-12T12:24:02;7.53;;;4.27;;
50647;SDS011;36617;52.002;6.034;2022-09-12T12:29:03;6.23;;;3.80;;
50647;SDS011;36617;52.002;6.034;2022-09-12T12:31:29;6.45;;;3.90;;
50647;SDS011;36617;52.002;6.034;2022-09-12T12:33:54;5.67;;;3.97;;
50647;SDS011;36617;52.002;6.034;2022-09-12T12:36:29;6.95;;;4.10;;
50647;SDS011;36617;52.002;6.034;2022-09-12T12:38:54;6.43;;;3.90;;
50647;SDS011;36617;52.002;6.034;2022-09-12T12:43:52;7.55;;;3.70;;
50647;SDS011;36617;52.002;6.034;2022-09-12T12:53:53;7.90;;;3.80;;
50647;SDS011;36617;52.002;6.034;2022-09-12T12:58:55;6.07;;;3.70;;
50647;SDS011;36617;52.002;6.034;2022-09-12T13:01:21;6.90;;;4.10;;
50647;SDS011;36617;52.002;6.034;2022-09-12T13:03:53;6.77;;;3.57;;
50647;SDS011;36617;52.002;6.034;2022-09-12T13:06:38;4.90;;;3.40;;
50647;SDS011;36617;52.002;6.034;2022-09-12T13:09:18;6.40;;;3.80;;
50647;SDS011;36617;52.002;6.034;2022-09-12T13:11:45;6.57;;;3.80;;
50647;SDS011;36617;52.002;6.034;2022-09-12T13:16:55;6.30;;;3.50;;
50647;SDS011;36617;52.002;6.034;2022-09-12T13:19:29;5.73;;;3.50;;
50647;SDS011;36617;52.002;6.034;2022-09-12T13:22:00;6.80;;;3.37;;
50647;SDS011;36617;52.002;6.034;2022-09-12T13:24:25;5.35;;;3.30;;
50647;SDS011;36617;52.002;6.034;2022-09-12T13:26:51;6.35;;;3.60;;
50647;SDS011;36617;52.002;6.034;2022-09-12T13:29:18;5.50;;;3.63;;
50647;SDS011;36617;52.002;6.034;2022-09-12T13:31:44;6.88;;;3.20;;
50647;SDS011;36617;52.002;6.034;2022-09-12T13:34:12;6.63;;;3.28;;
50647;SDS011;36617;52.002;6.034;2022-09-12T13:36:44;5.05;;;3.38;;
50647;SDS011;36617;52.002;6.034;2022-09-12T13:44:20;5.65;;;3.03;;
50647;SDS011;36617;52.002;6.034;2022-09-12T13:46:45;5.40;;;3.00;;
50647;SDS011;36617;52.002;6.034;2022-09-12T13:49:21;4.40;;;2.97;;
50647;SDS011;36617;52.002;6.034;2022-09-12T13:51:52;5.05;;;3.00;;
50647;SDS011;36617;52.002;6.034;2022-09-12T13:54:20;5.65;;;2.95;;
50647;SDS011;36617;52.002;6.034;2022-09-12T13:56:46;4.67;;;2.97;;
50647;SDS011;36617;52.002;6.034;2022-09-12T13:59:12;4.57;;;3.10;;
50647;SDS011;36617;52.002;6.034;2022-09-12T14:01:38;5.77;;;3.00;;
50647;SDS011;36617;52.002;6.034;2022-09-12T14:07:37;5.50;;;3.03;;
50647;SDS011;36617;52.002;6.034;2022-09-12T14:09:55;5.35;;;3.10;;
50647;SDS011;36617;52.002;6.034;2022-09-12T14:12:26;5.20;;;3.00;;
50647;SDS011;36617;52.002;6.034;2022-09-12T14:14:54;4.50;;;2.85;;
50647;SDS011;36617;52.002;6.034;2022-09-12T14:17:37;5.77;;;2.87;;
50647;SDS011;36617;52.002;6.034;2022-09-12T14:20:14;5.90;;;3.03;;
50647;SDS011;36617;52.002;6.034;2022-09-12T14:22:42;4.82;;;2.80;;
50647;SDS011;36617;52.002;6.034;2022-09-12T14:25:14;5.47;;;2.75;;
50647;SDS011;36617;52.002;6.034;2022-09-12T14:27:40;4.20;;;2.97;;
50647;SDS011;36617;52.002;6.034;2022-09-12T14:35:33;4.80;;;2.90;;
50647;SDS011;36617;52.002;6.034;2022-09-12T14:38:04;5.80;;;2.97;;
50647;SDS011;36617;52.002;6.034;2022-09-12T14:40:30;4.63;;;2.83;;
50647;SDS011;36617;52.002;6.034;2022-09-12T14:42:55;4.33;;;2.90;;
50647;SDS011;36617;52.002;6.034;2022-09-12T14:45:28;4.80;;;2.70;;
50647;SDS011;36617;52.002;6.034;2022-09-12T14:47:54;5.75;;;2.83;;
50647;SDS011;36617;52.002;6.034;2022-09-12T14:50:26;5.13;;;2.73;;
50647;SDS011;36617;52.002;6.034;2022-09-12T14:55:28;4.30;;;2.80;;
50647;SDS011;36617;52.002;6.034;2022-09-12T15:00:50;4.70;;;2.88;;
50647;SDS011;36617;52.002;6.034;2022-09-12T15:03:22;4.57;;;2.93;;
50647;SDS011;36617;52.002;6.034;2022-09-12T15:05:48;4.90;;;2.93;;
50647;SDS011;36617;52.002;6.034;2022-09-12T15:08:14;4.70;;;2.70;;
50647;SDS011;36617;52.002;6.034;2022-09-12T15:10:42;4.70;;;2.90;;
50647;SDS011;36617;52.002;6.034;2022-09-12T15:15:32;8.87;;;3.30;;
50647;SDS011;36617;52.002;6.034;2022-09-12T15:17:58;5.67;;;3.20;;
50647;SDS011;36617;52.002;6.034;2022-09-12T15:20:23;5.17;;;2.90;;
50647;SDS011;36617;52.002;6.034;2022-09-12T15:22:49;5.20;;;3.10;;
50647;SDS011;36617;52.002;6.034;2022-09-12T15:25:15;5.05;;;2.90;;
50647;SDS011;36617;52.002;6.034;2022-09-12T15:27:40;4.43;;;2.83;;
50647;SDS011;36617;52.002;6.034;2022-09-12T15:30:06;4.70;;;2.90;;
50647;SDS011;36617;52.002;6.034;2022-09-12T15:32:32;5.70;;;3.38;;
50647;SDS011;36617;52.002;6.034;2022-09-12T15:34:57;5.37;;;3.30;;
50647;SDS011;36617;52.002;6.034;2022-09-12T15:37:23;5.20;;;3.10;;
50647;SDS011;36617;52.002;6.034;2022-09-12T15:39:48;4.80;;;3.40;;
50647;SDS011;36617;52.002;6.034;2022-09-12T15:42:14;4.75;;;3.03;;
50647;SDS011;36617;52.002;6.034;2022-09-12T15:44:40;5.55;;;2.92;;
50647;SDS011;36617;52.002;6.034;2022-09-12T15:47:05;5.60;;;3.27;;
50647;SDS011;36617;52.002;6.034;2022-09-12T15:49:30;5.00;;;3.20;;
50647;SDS011;36617;52.002;6.034;2022-09-12T15:51:56;4.22;;;2.90;;
50647;SDS011;36617;52.002;6.034;2022-09-12T15:54:21;5.73;;;3.27;;
50647;SDS011;36617;52.002;6.034;2022-09-12T15:56:46;4.73;;;3.00;;
50647;SDS011;36617;52.002;6.034;2022-09-12T15:59:11;6.07;;;3.30;;
50647;SDS011;36617;52.002;6.034;2022-09-12T16:01:37;5.65;;;3.03;;
50647;SDS011;36617;52.002;6.034;2022-09-12T16:04:02;5.10;;;3.10;;
50647;SDS011;36617;52.002;6.034;2022-09-12T16:06:28;5.77;;;3.40;;
50647;SDS011;36617;52.002;6.034;2022-09-12T16:08:55;6.20;;;3.00;;
50647;SDS011;36617;52.002;6.034;2022-09-12T16:11:21;5.43;;;3.17;;
50647;SDS011;36617;52.002;6.034;2022-09-12T16:13:46;5.82;;;3.00;;
50647;SDS011;36617;52.002;6.034;2022-09-12T16:16:11;6.50;;;3.00;;
50647;SDS011;36617;52.002;6.034;2022-09-12T16:18:40;6.20;;;3.07;;
50647;SDS011;36617;52.002;6.034;2022-09-12T16:21:05;4.45;;;2.90;;
50647;SDS011;36617;52.002;6.034;2022-09-12T16:23:30;5.65;;;3.10;;
50647;SDS011;36617;52.002;6.034;2022-09-12T16:25:59;5.23;;;2.90;;
50647;SDS011;36617;52.002;6.034;2022-09-12T16:28:24;5.88;;;3.25;;
50647;SDS011;36617;52.002;6.034;2022-09-12T16:30:59;4.83;;;3.00;;
50647;SDS011;36617;52.002;6.034;2022-09-12T16:33:25;4.67;;;3.00;;
50647;SDS011;36617;52.002;6.034;2022-09-12T16:35:50;5.43;;;3.00;;
50647;SDS011;36617;52.002;6.034;2022-09-12T16:38:18;5.07;;;3.20;;
50647;SDS011;36617;52.002;6.034;2022-09-12T16:40:44;4.78;;;2.95;;
50647;SDS011;36617;52.002;6.034;2022-09-12T16:43:09;5.38;;;3.10;;
50647;SDS011;36617;52.002;6.034;2022-09-12T16:45:34;4.14;;;2.74;;
50647;SDS011;36617;52.002;6.034;2022-09-12T16:47:59;4.60;;;3.00;;
50647;SDS011;36617;52.002;6.034;2022-09-12T16:50:25;5.10;;;3.13;;
50647;SDS011;36617;52.002;6.034;2022-09-12T16:52:50;4.53;;;3.00;;
50647;SDS011;36617;52.002;6.034;2022-09-12T16:55:15;5.60;;;3.00;;